Time;durP1;ratioP1;P1;durP2;ratioP2;P2;SDS_P1;SDS_P2;PMS_P1;PMS_P2;Temp;Humidity;BMP_temperature;BMP_pressure;BME280_temperature;BME280_humidity;BME280_pressure;Samples;Min_cycle;Max_cycle;Signal;HPM_P1;HPM_P2
2022/11/12 00:01:31;;;;;;;1.20;1.10;;;11.00;99.90;;;;;;5047937;28;20172;-81
2022/11/12 00:03:57;;;;;;;1.67;1.58;;;11.00;99.90;;;;;;5047772;28;20383;-82
2022/11/12 00:06:22;;;;;;;3.38;1.33;;;11.10;99.90;;;;;;5032646;28;20108;-81
2022/11/12 00:08:48;;;;;;;1.45;1.30;;;11.10;99.90;;;;;;5032307;28;20041;-82
2022/11/12 00:11:14;;;;;;;1.30;1.20;;;11.10;99.90;;;;;;5032036;28;20475;-81
2022/11/12 00:13:40;;;;;;;0.93;0.88;;;11.10;99.90;;;;;;5032102;28;20033;-81
2022/11/12 00:16:06;;;;;;;1.08;0.95;;;11.00;99.90;;;;;;5031407;28;20587;-82
2022/11/12 00:18:31;;;;;;;1.45;1.30;;;11.10;99.90;;;;;;5047478;28;20044;-82
2022/11/12 00:20:57;;;;;;;1.10;1.10;;;11.10;99.90;;;;;;5047964;28;20494;-81
2022/11/12 00:23:23;;;;;;;1.63;1.10;;;11.10;99.90;;;;;;5035879;28;20032;-82
2022/11/12 00:25:58;;;;;;;2.67;1.20;;;11.10;99.90;;;;;;5035758;28;20022;-82
2022/11/12 00:28:24;;;;;;;2.10;1.88;;;11.00;99.90;;;;;;5035655;28;20021;-81
2022/11/12 00:30:49;;;;;;;2.10;2.00;;;11.00;99.90;;;;;;5050478;28;20091;-82
2022/11/12 00:33:15;;;;;;;1.45;1.40;;;10.90;99.90;;;;;;5045523;28;20379;-81
2022/11/12 00:35:41;;;;;;;1.60;1.50;;;10.90;99.90;;;;;;5056166;28;20159;-81
2022/11/12 00:38:06;;;;;;;1.70;1.60;;;10.90;99.90;;;;;;5037570;28;20025;-81
2022/11/12 00:40:32;;;;;;;1.10;1.10;;;10.90;99.90;;;;;;5035110;28;20028;-81
2022/11/12 00:42:58;;;;;;;1.00;1.00;;;11.00;99.90;;;;;;5037493;28;20032;-82
2022/11/12 00:45:23;;;;;;;1.30;1.20;;;11.00;99.90;;;;;;5055578;28;20494;-81
2022/11/12 00:47:49;;;;;;;2.30;2.10;;;11.00;99.90;;;;;;5054221;28;20025;-81
2022/11/12 00:50:15;;;;;;;2.45;1.40;;;10.90;99.90;;;;;;5054443;28;20057;-81
2022/11/12 00:52:40;;;;;;;2.13;1.50;;;10.90;99.90;;;;;;5036484;28;20033;-81
2022/11/12 00:55:06;;;;;;;1.25;1.15;;;10.90;99.90;;;;;;5054491;28;20111;-81
2022/11/12 00:57:32;;;;;;;1.02;1.02;;;10.90;99.90;;;;;;5045850;28;20104;-82
2022/11/12 00:59:57;;;;;;;1.00;1.00;;;10.90;99.90;;;;;;5043836;28;20071;-82
2022/11/12 01:02:23;;;;;;;2.40;0.90;;;11.00;99.90;;;;;;5054416;28;20054;-80
2022/11/12 01:04:49;;;;;;;1.40;1.20;;;11.00;99.90;;;;;;5054039;28;20033;-82
2022/11/12 01:07:17;;;;;;;1.20;1.10;;;11.00;99.90;;;;;;5069866;28;20031;-82
2022/11/12 01:09:43;;;;;;;1.50;1.40;;;11.00;99.90;;;;;;5015295;28;20484;-82
2022/11/12 01:12:11;;;;;;;1.50;1.40;;;11.00;99.90;;;;;;5013615;28;20036;-81
2022/11/12 01:14:37;;;;;;;1.45;1.35;;;11.00;99.90;;;;;;5014434;28;20054;-82
2022/11/12 01:17:02;;;;;;;1.52;1.42;;;10.90;99.90;;;;;;5014568;28;20440;-82
2022/11/12 01:19:28;;;;;;;1.55;1.45;;;10.80;99.90;;;;;;4996614;28;20080;-81
2022/11/12 01:21:53;;;;;;;1.38;1.33;;;10.80;99.90;;;;;;4996838;28;20026;-82
2022/11/12 01:24:19;;;;;;;1.67;1.52;;;10.80;99.90;;;;;;5022322;28;20040;-82
2022/11/12 01:26:46;;;;;;;1.75;1.33;;;10.80;99.90;;;;;;5043970;28;20036;-81
2022/11/12 01:29:11;;;;;;;2.00;1.90;;;10.70;99.90;;;;;;5054152;28;20025;-81
2022/11/12 01:31:37;;;;;;;1.92;1.83;;;10.60;99.90;;;;;;5053742;28;20028;-82
2022/11/12 01:34:05;;;;;;;3.50;2.22;;;10.60;99.90;;;;;;5043718;28;20036;-81
2022/11/12 01:36:34;;;;;;;3.10;2.90;;;10.60;99.90;;;;;;5037927;28;20030;-82
2022/11/12 01:39:00;;;;;;;2.92;2.67;;;10.40;99.90;;;;;;5016218;28;20022;-82
2022/11/12 01:41:28;;;;;;;2.90;2.70;;;10.30;99.90;;;;;;5033819;28;20403;-81
2022/11/12 01:44:09;;;;;;;2.35;2.25;;;10.30;99.90;;;;;;5033721;28;20017;-82
2022/11/12 01:46:43;;;;;;;1.75;1.65;;;10.30;99.90;;;;;;4995092;28;1128447;-82
2022/11/12 01:49:14;;;;;;;1.60;1.50;;;10.40;99.90;;;;;;5034811;28;20479;-81
2022/11/12 01:51:43;;;;;;;1.05;0.90;;;10.50;99.90;;;;;;5034756;28;20075;-81
2022/11/12 01:54:14;;;;;;;1.10;1.10;;;10.60;99.90;;;;;;5034556;28;20025;-82
2022/11/12 01:56:40;;;;;;;2.03;1.30;;;10.70;99.90;;;;;;5034645;28;20037;-82
2022/11/12 01:59:15;;;;;;;1.38;1.25;;;10.70;99.90;;;;;;5003740;28;20030;-81
2022/11/12 02:01:41;;;;;;;1.77;1.67;;;10.80;99.90;;;;;;5015427;28;20448;-82
2022/11/12 02:04:07;;;;;;;2.10;2.00;;;10.70;99.90;;;;;;5034442;28;20064;-82
2022/11/12 02:06:34;;;;;;;2.00;1.80;;;10.70;99.90;;;;;;5034276;28;20445;-81
2022/11/12 02:09:00;;;;;;;2.05;1.20;;;10.60;99.90;;;;;;5034325;28;20018;-82
2022/11/12 02:11:26;;;;;;;1.48;0.90;;;10.70;99.90;;;;;;5016437;28;20025;-82
2022/11/12 02:13:57;;;;;;;0.85;0.85;;;10.70;99.90;;;;;;5033880;28;20043;-82
2022/11/12 02:16:39;;;;;;;1.13;1.00;;;10.80;99.90;;;;;;5054264;28;20030;-82
2022/11/12 02:19:09;;;;;;;0.95;0.95;;;10.90;99.90;;;;;;5036083;28;20028;-82
2022/11/12 02:21:35;;;;;;;2.50;0.93;;;10.90;99.90;;;;;;5053963;28;20017;-81
2022/11/12 02:24:10;;;;;;;1.00;1.00;;;10.90;99.90;;;;;;5053012;28;20036;-82
2022/11/12 02:26:39;;;;;;;1.30;1.20;;;10.90;99.90;;;;;;5036164;28;20031;-81
2022/11/12 02:29:05;;;;;;;2.65;1.60;;;10.80;99.90;;;;;;5053854;28;20029;-82
2022/11/12 02:31:31;;;;;;;2.25;1.67;;;10.70;99.90;;;;;;5052732;28;20523;-82
2022/11/12 02:33:56;;;;;;;2.05;1.95;;;10.50;99.90;;;;;;5017481;28;20040;-82
2022/11/12 02:36:23;;;;;;;2.13;2.03;;;10.40;99.90;;;;;;5014130;28;20030;-81
2022/11/12 02:38:48;;;;;;;3.67;2.88;;;10.30;99.90;;;;;;5013659;28;20117;-81
2022/11/12 02:41:15;;;;;;;4.25;3.08;;;10.30;99.90;;;;;;5013925;28;20064;-81
2022/11/12 02:43:40;;;;;;;3.60;2.47;;;10.30;99.90;;;;;;5013591;28;20041;-80
2022/11/12 02:46:07;;;;;;;2.90;2.70;;;10.30;99.90;;;;;;5028309;28;20499;-80
2022/11/12 02:48:32;;;;;;;2.55;2.38;;;10.30;99.90;;;;;;5052797;28;20072;-80
2022/11/12 02:50:58;;;;;;;4.43;2.58;;;10.30;99.90;;;;;;5034888;28;20064;-81
2022/11/12 02:53:23;;;;;;;3.75;2.65;;;10.20;99.90;;;;;;5052702;28;20025;-81
2022/11/12 02:55:49;;;;;;;2.28;2.13;;;10.20;99.90;;;;;;5045681;28;20080;-81
2022/11/12 02:58:15;;;;;;;1.52;1.42;;;10.20;99.90;;;;;;5032660;28;20037;-81
2022/11/12 03:00:40;;;;;;;1.10;1.10;;;10.20;99.90;;;;;;5030374;28;20032;-80
2022/11/12 03:03:06;;;;;;;0.95;0.95;;;10.20;99.90;;;;;;5051403;28;20021;-81
2022/11/12 03:05:34;;;;;;;1.30;1.30;;;10.20;99.90;;;;;;5032753;28;20022;-81
2022/11/12 03:08:05;;;;;;;4.60;1.50;;;10.30;99.90;;;;;;5015163;28;20022;-81
2022/11/12 03:10:31;;;;;;;1.40;1.30;;;10.30;99.90;;;;;;5015537;28;20540;-81
2022/11/12 03:13:00;;;;;;;1.05;1.00;;;10.30;99.90;;;;;;5033174;28;20152;-80
2022/11/12 03:15:28;;;;;;;1.60;1.50;;;10.30;99.90;;;;;;5050487;28;20021;-80
2022/11/12 03:17:53;;;;;;;1.17;1.17;;;10.30;99.90;;;;;;5052925;28;20581;-80
2022/11/12 03:20:19;;;;;;;1.80;1.20;;;10.30;99.90;;;;;;5053090;28;20025;-80
2022/11/12 03:23:06;;;;;;;2.38;1.23;;;10.20;99.90;;;;;;5053011;28;20382;-80
2022/11/12 03:25:32;;;;;;;10.02;1.20;;;10.20;99.90;;;;;;5052834;28;20028;-81
2022/11/12 03:27:59;;;;;;;1.48;1.27;;;10.20;99.90;;;;;;5019877;28;20099;-81
2022/11/12 03:30:29;;;;;;;1.70;1.45;;;10.30;99.90;;;;;;5021266;28;20026;-81
2022/11/12 03:32:55;;;;;;;1.48;1.25;;;10.40;99.90;;;;;;5048327;28;20028;-80
2022/11/12 03:35:21;;;;;;;1.58;1.20;;;10.50;99.90;;;;;;5015375;28;20116;-80
2022/11/12 03:37:47;;;;;;;1.02;0.80;;;10.40;99.90;;;;;;5033106;28;20025;-81
2022/11/12 03:40:13;;;;;;;0.88;0.88;;;10.50;99.90;;;;;;5032677;28;20091;-81
2022/11/12 03:42:50;;;;;;;1.23;0.80;;;10.50;99.90;;;;;;5015345;28;20030;-81
2022/11/12 03:45:18;;;;;;;3.35;0.70;;;10.60;99.90;;;;;;5032408;28;20017;-81
2022/11/12 03:47:48;;;;;;;0.82;0.82;;;10.70;99.90;;;;;;5033582;28;20490;-81
2022/11/12 03:50:16;;;;;;;0.80;0.80;;;10.70;99.90;;;;;;5032638;28;20041;-81
2022/11/12 03:52:51;;;;;;;1.35;0.95;;;10.60;99.90;;;;;;5041959;28;20033;-82
2022/11/12 03:55:18;;;;;;;1.15;0.75;;;10.60;99.90;;;;;;5043479;28;20087;-81
2022/11/12 03:57:46;;;;;;;0.55;0.50;;;10.60;99.90;;;;;;5032461;28;20053;-81
2022/11/12 04:00:12;;;;;;;1.35;0.80;;;10.70;99.90;;;;;;5032972;28;20080;-81
2022/11/12 04:02:38;;;;;;;0.80;0.80;;;10.80;99.90;;;;;;5033857;28;20022;-81
2022/11/12 04:10:45;;;;;;;1.08;1.00;;;10.60;99.90;;;;;;5034673;28;20032;-81
2022/11/12 04:13:29;;;;;;;3.72;0.80;;;10.60;99.90;;;;;;5035115;28;20033;-81
2022/11/12 04:21:50;;;;;;;0.88;0.88;;;10.60;99.90;;;;;;5035320;28;20087;-82
2022/11/12 04:27:25;;;;;;;1.02;1.02;;;10.60;99.90;;;;;;5035318;28;20037;-81
2022/11/12 04:32:48;;;;;;;0.90;0.90;;;10.50;99.90;;;;;;5035347;28;20045;-81
2022/11/12 04:35:14;;;;;;;0.80;0.80;;;10.40;99.90;;;;;;5034831;28;20021;-81
2022/11/12 04:37:46;;;;;;;1.15;1.15;;;10.40;99.90;;;;;;5034882;28;20021;-82
2022/11/12 04:45:45;;;;;;;1.20;1.20;;;10.20;99.90;;;;;;5034808;28;20052;-81
2022/11/12 04:48:10;;;;;;;1.35;1.08;;;10.20;99.90;;;;;;5052846;28;20371;-81
2022/11/12 04:50:36;;;;;;;0.90;0.90;;;10.20;99.90;;;;;;5054403;28;20017;-81
2022/11/12 04:53:02;;;;;;;0.70;0.70;;;10.20;99.90;;;;;;5036602;28;20029;-82
2022/11/12 04:55:28;;;;;;;0.95;0.95;;;10.10;99.90;;;;;;5050315;28;20032;-81
2022/11/12 04:57:53;;;;;;;0.85;0.85;;;10.20;99.90;;;;;;5034473;28;20049;-81
2022/11/12 05:00:19;;;;;;;0.90;0.90;;;10.20;99.90;;;;;;5049705;28;20080;-81
2022/11/12 05:02:45;;;;;;;0.70;0.70;;;10.20;99.90;;;;;;5034321;28;20025;-81
2022/11/12 05:05:10;;;;;;;1.63;1.20;;;10.10;99.90;;;;;;5034370;28;20025;-81
2022/11/12 05:07:36;;;;;;;3.42;1.10;;;10.10;99.90;;;;;;5033668;28;20029;-81
2022/11/12 05:10:02;;;;;;;0.85;0.85;;;10.00;99.90;;;;;;5033920;28;20043;-81
2022/11/12 05:12:27;;;;;;;1.10;1.10;;;9.90;99.90;;;;;;5034305;28;20087;-81
2022/11/12 05:14:53;;;;;;;1.02;0.93;;;9.80;99.90;;;;;;5034382;28;20033;-81
2022/11/12 05:17:19;;;;;;;1.02;1.02;;;9.70;99.90;;;;;;5034162;28;20032;-81
2022/11/12 05:19:44;;;;;;;0.90;0.85;;;9.70;99.90;;;;;;5034257;28;20033;-81
2022/11/12 05:22:11;;;;;;;1.45;0.90;;;9.80;99.90;;;;;;5049470;28;20025;-81
2022/11/12 05:24:41;;;;;;;0.80;0.80;;;9.90;99.90;;;;;;5034025;28;20455;-81
2022/11/12 05:27:18;;;;;;;2.08;0.80;;;10.00;99.90;;;;;;5016192;28;20025;-81
2022/11/12 05:29:44;;;;;;;0.90;0.90;;;9.90;99.90;;;;;;5049203;28;20490;-81
2022/11/12 05:32:12;;;;;;;2.08;0.90;;;10.00;99.90;;;;;;5033982;28;20061;-81
2022/11/12 05:34:38;;;;;;;0.75;0.75;;;10.00;99.90;;;;;;5033762;28;20025;-81
2022/11/12 05:37:06;;;;;;;0.85;0.85;;;10.00;99.90;;;;;;5033665;28;20036;-81
2022/11/12 05:39:31;;;;;;;0.80;0.80;;;10.10;99.90;;;;;;5015824;28;20033;-81
2022/11/12 05:41:57;;;;;;;1.10;0.95;;;10.00;99.90;;;;;;5033593;28;20095;-81
2022/11/12 05:44:23;;;;;;;0.90;0.90;;;10.00;99.90;;;;;;5033626;28;20029;-81
2022/11/12 05:46:49;;;;;;;3.97;0.90;;;10.00;99.90;;;;;;5015355;28;20103;-81
2022/11/12 05:49:16;;;;;;;2.08;0.98;;;10.10;99.90;;;;;;5015476;28;20040;-81
2022/11/12 05:51:42;;;;;;;2.28;1.10;;;10.00;99.90;;;;;;5015450;28;20031;-82
2022/11/12 05:54:08;;;;;;;1.05;1.05;;;10.00;99.90;;;;;;5033264;28;20152;-81
2022/11/12 05:56:34;;;;;;;1.73;1.30;;;10.00;99.90;;;;;;5033204;28;20080;-81
2022/11/12 05:59:01;;;;;;;1.60;1.50;;;10.00;99.90;;;;;;5033080;28;20056;-81
2022/11/12 06:01:27;;;;;;;1.60;1.50;;;10.10;99.90;;;;;;5048427;28;20021;-81
2022/11/12 06:03:52;;;;;;;1.58;1.48;;;10.00;99.90;;;;;;5033143;28;20024;-82
2022/11/12 06:06:18;;;;;;;3.38;1.67;;;10.10;99.90;;;;;;5033338;28;20025;-81
2022/11/12 06:08:44;;;;;;;1.70;1.60;;;10.00;99.90;;;;;;5048425;28;20029;-81
2022/11/12 06:11:10;;;;;;;4.68;1.90;;;10.10;99.90;;;;;;5015375;28;20025;-81
2022/11/12 06:13:35;;;;;;;2.20;2.10;;;10.10;99.90;;;;;;5033048;28;20025;-81
2022/11/12 06:16:01;;;;;;;3.45;3.17;;;10.00;99.90;;;;;;5033126;28;20061;-81
2022/11/12 06:18:26;;;;;;;2.70;2.47;;;10.00;99.90;;;;;;5048031;28;20111;-81
2022/11/12 06:21:34;;;;;;;2.72;2.53;;;10.00;99.90;;;;;;5032608;28;20049;-81
2022/11/12 06:23:41;;;;;;;2.85;2.65;;;10.10;99.90;;;;;;5027205;28;20514;-81
2022/11/12 06:26:06;;;;;;;3.88;2.97;;;10.00;99.90;;;;;;5032528;28;20105;-80
2022/11/12 06:28:32;;;;;;;3.30;3.08;;;10.10;99.90;;;;;;5032793;28;20060;-81
2022/11/12 06:30:58;;;;;;;2.85;2.63;;;10.10;99.90;;;;;;5032506;28;20022;-81
2022/11/12 06:33:26;;;;;;;2.78;2.55;;;10.10;99.90;;;;;;5032762;28;20072;-80
2022/11/12 06:36:01;;;;;;;3.47;2.55;;;10.10;99.90;;;;;;5051601;28;20151;-80
2022/11/12 06:38:29;;;;;;;2.63;2.42;;;10.20;99.90;;;;;;5052314;28;20025;-81
2022/11/12 06:40:55;;;;;;;2.00;1.90;;;10.20;99.90;;;;;;5052448;28;20048;-81
2022/11/12 06:43:20;;;;;;;3.78;2.53;;;10.20;99.90;;;;;;5052432;28;20021;-82
2022/11/12 06:45:46;;;;;;;3.30;2.22;;;10.00;99.90;;;;;;5033994;28;20049;-80
2022/11/12 06:48:11;;;;;;;3.05;2.53;;;10.10;99.90;;;;;;5050891;28;20029;-81
2022/11/12 06:50:37;;;;;;;3.08;2.17;;;10.10;99.90;;;;;;5051924;28;20387;-81
2022/11/12 06:53:03;;;;;;;3.00;1.65;;;10.30;99.90;;;;;;5034234;28;20029;-82
2022/11/12 06:55:28;;;;;;;1.98;1.88;;;10.30;99.90;;;;;;5048245;28;20032;-82
2022/11/12 06:57:54;;;;;;;4.38;2.47;;;10.30;99.90;;;;;;5047341;28;20057;-81
2022/11/12 07:00:20;;;;;;;4.07;2.92;;;10.30;99.90;;;;;;5031758;28;20029;-80
2022/11/12 07:02:45;;;;;;;5.22;4.82;;;10.30;99.90;;;;;;5032138;28;20105;-81
2022/11/12 07:05:11;;;;;;;7.53;6.50;;;10.30;99.90;;;;;;5031933;28;20410;-81
2022/11/12 07:07:37;;;;;;;12.60;7.35;;;10.40;99.90;;;;;;5047260;28;20022;-82
2022/11/12 07:10:02;;;;;;;5.85;4.70;;;10.40;99.90;;;;;;5047114;28;20498;-82
2022/11/12 07:12:28;;;;;;;5.82;4.80;;;10.50;99.90;;;;;;5047131;28;20483;-81
2022/11/12 07:14:55;;;;;;;11.32;6.57;;;10.60;99.90;;;;;;5031648;28;20079;-81
2022/11/12 07:17:20;;;;;;;5.43;4.93;;;10.70;99.90;;;;;;5031930;28;20048;-81
2022/11/12 07:19:46;;;;;;;10.30;5.75;;;10.80;99.90;;;;;;5013629;28;20175;-80
2022/11/12 07:22:12;;;;;;;7.07;5.10;;;10.80;99.90;;;;;;5031877;28;20494;-82
2022/11/12 07:24:37;;;;;;;5.70;4.57;;;10.90;99.90;;;;;;5013956;28;20018;-81
2022/11/12 07:27:04;;;;;;;5.72;4.70;;;10.90;99.90;;;;;;5030719;28;20541;-81
2022/11/12 07:29:30;;;;;;;5.70;5.00;;;10.90;99.90;;;;;;5051484;28;20400;-81
2022/11/12 07:31:55;;;;;;;5.93;5.25;;;11.00;99.90;;;;;;5033459;28;20032;-81
2022/11/12 07:34:21;;;;;;;5.25;4.75;;;11.00;99.90;;;;;;5051193;28;20033;-81
2022/11/12 07:36:50;;;;;;;7.85;5.97;;;11.00;99.90;;;;;;5051497;28;20020;-82
2022/11/12 07:39:19;;;;;;;6.28;5.40;;;11.00;99.90;;;;;;5033199;28;20498;-82
2022/11/12 07:41:45;;;;;;;9.18;5.53;;;11.10;99.90;;;;;;5051089;28;20499;-81
2022/11/12 07:44:10;;;;;;;9.23;5.68;;;11.10;99.90;;;;;;5051219;28;20282;-81
2022/11/12 07:46:36;;;;;;;8.80;6.18;;;11.20;99.90;;;;;;5051309;28;20446;-81
2022/11/12 07:49:01;;;;;;;8.68;6.72;;;11.30;99.90;;;;;;5051283;28;20033;-81
2022/11/12 07:51:28;;;;;;;11.00;6.70;;;11.30;99.90;;;;;;5051245;28;20116;-81
2022/11/12 07:53:56;;;;;;;9.43;7.22;;;11.30;99.90;;;;;;5033590;28;20027;-81
2022/11/12 07:56:24;;;;;;;11.95;9.35;;;11.40;99.90;;;;;;5039948;28;20029;-81
2022/11/12 07:58:50;;;;;;;16.00;9.45;;;11.40;99.90;;;;;;5031184;28;20092;-81
2022/11/12 08:01:33;;;;;;;15.73;9.77;;;11.40;99.90;;;;;;5013463;28;20378;-82
2022/11/12 08:04:00;;;;;;;12.85;7.68;;;11.50;99.90;;;;;;5031491;28;20049;-81
2022/11/12 08:06:26;;;;;;;9.40;7.30;;;11.60;99.90;;;;;;5013931;28;20018;-82
2022/11/12 08:08:56;;;;;;;12.77;6.35;;;11.60;99.90;;;;;;5031557;28;20127;-81
2022/11/12 08:11:23;;;;;;;14.88;6.30;;;11.60;99.90;;;;;;5013859;28;20025;-82
2022/11/12 08:13:48;;;;;;;11.70;5.88;;;11.70;99.90;;;;;;5031596;28;20064;-81
2022/11/12 08:16:15;;;;;;;7.65;5.68;;;11.80;99.90;;;;;;5031568;28;20049;-81
2022/11/12 08:18:41;;;;;;;9.73;6.30;;;11.80;99.90;;;;;;5031601;28;20076;-81
2022/11/12 08:21:10;;;;;;;7.18;5.47;;;11.90;99.90;;;;;;5030376;28;20022;-81
2022/11/12 08:23:36;;;;;;;6.82;5.90;;;11.90;99.90;;;;;;5032608;28;20117;-81
2022/11/12 08:26:04;;;;;;;5.95;5.35;;;11.90;99.90;;;;;;5031984;28;20061;-80
2022/11/12 08:28:31;;;;;;;6.97;5.88;;;12.00;99.90;;;;;;5031474;28;20499;-80
2022/11/12 08:31:02;;;;;;;5.63;4.78;;;12.00;99.90;;;;;;5032240;28;20396;-81
2022/11/12 08:33:28;;;;;;;4.97;4.40;;;12.00;99.90;;;;;;5032847;28;20025;-82
2022/11/12 08:35:54;;;;;;;5.20;4.72;;;12.00;99.90;;;;;;5032243;28;20391;-81
2022/11/12 08:38:20;;;;;;;4.28;3.88;;;12.00;99.90;;;;;;5032260;28;20017;-81
2022/11/12 08:40:45;;;;;;;6.15;4.70;;;12.00;99.90;;;;;;5032502;28;20093;-81
2022/11/12 08:43:11;;;;;;;6.03;4.78;;;12.10;99.90;;;;;;5034667;28;20100;-81
2022/11/12 08:45:38;;;;;;;8.93;7.78;;;12.10;99.90;;;;;;5031253;28;20060;-82
2022/11/12 08:48:10;;;;;;;6.55;5.88;;;12.20;99.90;;;;;;4998657;28;20700;-81
2022/11/12 08:50:36;;;;;;;5.90;5.40;;;12.20;99.90;;;;;;5031168;28;20052;-80
2022/11/12 08:53:07;;;;;;;6.03;5.30;;;12.30;99.90;;;;;;5016124;28;20651;-81
2022/11/12 08:55:33;;;;;;;7.05;5.80;;;12.30;99.90;;;;;;5016096;28;20084;-81
2022/11/12 08:58:03;;;;;;;7.30;5.40;;;12.30;99.90;;;;;;5031276;28;20022;-81
2022/11/12 09:00:30;;;;;;;6.50;5.13;;;12.30;99.90;;;;;;5015901;28;20046;-81
2022/11/12 09:02:59;;;;;;;6.03;5.43;;;12.40;99.90;;;;;;5015975;28;20030;-81
2022/11/12 09:05:27;;;;;;;6.05;4.97;;;12.40;99.90;;;;;;5015822;28;20029;-81
2022/11/12 09:08:00;;;;;;;5.53;5.13;;;12.50;99.90;;;;;;5015632;28;20026;-82
2022/11/12 09:10:27;;;;;;;5.95;5.35;;;12.50;99.90;;;;;;5015643;28;20730;-81
2022/11/12 09:12:53;;;;;;;5.80;5.00;;;12.50;99.90;;;;;;5015709;28;20036;-81
2022/11/12 09:15:23;;;;;;;4.80;4.40;;;12.50;99.90;;;;;;5015672;28;20030;-80
2022/11/12 09:17:57;;;;;;;7.30;4.63;;;12.50;99.90;;;;;;5015497;28;20080;-81
2022/11/12 09:20:24;;;;;;;8.45;5.70;;;12.60;99.90;;;;;;5015612;28;20599;-81
2022/11/12 09:22:50;;;;;;;12.20;5.22;;;12.60;99.90;;;;;;5015721;28;20025;-81
2022/11/12 09:25:16;;;;;;;6.95;6.25;;;12.60;99.90;;;;;;5015604;28;20022;-81
2022/11/12 09:27:42;;;;;;;6.35;5.45;;;12.70;99.90;;;;;;5015603;28;20034;-81
2022/11/12 09:30:08;;;;;;;8.50;5.65;;;12.70;99.90;;;;;;5030741;28;20120;-81
2022/11/12 09:32:33;;;;;;;10.75;5.63;;;12.70;99.90;;;;;;5015364;28;20068;-81
2022/11/12 09:35:02;;;;;;;8.75;6.32;;;12.80;99.90;;;;;;5015424;28;20058;-81
2022/11/12 09:37:28;;;;;;;10.20;6.70;;;12.80;99.90;;;;;;5015290;28;20030;-81
2022/11/12 09:39:54;;;;;;;8.07;6.45;;;12.90;99.90;;;;;;5014998;28;20033;-81
2022/11/12 09:42:21;;;;;;;10.77;6.03;;;12.90;99.90;;;;;;5034028;28;20040;-76
2022/11/12 09:45:02;;;;;;;8.50;6.55;;;12.90;99.90;;;;;;4997284;28;20125;-76
2022/11/12 09:47:28;;;;;;;7.88;6.43;;;12.90;99.90;;;;;;4999415;28;20053;-76
2022/11/12 09:50:04;;;;;;;8.90;6.53;;;13.00;99.90;;;;;;4996911;28;20029;-76
2022/11/12 09:52:30;;;;;;;12.50;7.13;;;13.00;99.90;;;;;;5028426;28;20488;-76
2022/11/12 09:55:08;;;;;;;7.72;7.07;;;13.10;99.90;;;;;;5014950;28;20059;-76
2022/11/12 09:57:34;;;;;;;8.38;7.35;;;13.10;99.90;;;;;;4995089;28;20469;-76
2022/11/12 10:00:02;;;;;;;10.18;7.82;;;13.10;99.90;;;;;;4994577;28;20058;-76
2022/11/12 10:03:02;;;;;;;10.85;7.55;;;13.10;99.90;;;;;;4977166;28;20023;-76
2022/11/12 10:05:47;;;;;;;12.07;7.22;;;13.10;99.90;;;;;;4994721;28;20550;-76
2022/11/12 10:08:16;;;;;;;8.80;7.18;;;13.20;99.90;;;;;;4994651;28;20022;-76
2022/11/12 10:10:56;;;;;;;4.82;4.43;;;13.20;99.90;;;;;;4994424;28;20053;-74
2022/11/12 10:13:40;;;;;;;2.28;2.17;;;13.30;99.90;;;;;;4994620;28;20030;-73
2022/11/12 10:16:43;;;;;;;12.77;4.47;;;13.60;99.90;;;;;;4993987;28;20605;-74
2022/11/12 10:19:46;;;;;;;12.32;6.38;;;13.80;99.90;;;;;;4994473;28;20609;-80
2022/11/12 10:22:27;;;;;;;11.13;7.88;;;14.00;99.90;;;;;;4994680;28;20034;-80
2022/11/12 10:24:54;;;;;;;10.90;7.95;;;13.90;99.90;;;;;;5004203;28;20022;-80
2022/11/12 10:27:39;;;;;;;13.30;8.23;;;13.90;99.90;;;;;;5014437;28;20022;-80
2022/11/12 10:30:12;;;;;;;12.30;7.35;;;13.80;99.90;;;;;;5014416;28;20030;-80
2022/11/12 10:32:42;;;;;;;8.88;6.72;;;13.80;99.90;;;;;;5014129;28;20502;-80
2022/11/12 10:35:09;;;;;;;7.93;6.50;;;13.80;99.90;;;;;;5013286;28;20057;-80
2022/11/12 10:38:01;;;;;;;8.52;6.50;;;13.80;99.90;;;;;;5013256;28;20653;-80
2022/11/12 10:40:38;;;;;;;7.18;6.38;;;13.90;99.90;;;;;;5012609;28;20116;-80
2022/11/12 10:43:16;;;;;;;7.63;6.20;;;13.90;99.90;;;;;;5029575;28;20610;-80
2022/11/12 10:45:43;;;;;;;9.32;6.78;;;13.90;99.90;;;;;;5038525;28;20045;-80
2022/11/12 10:48:27;;;;;;;7.88;6.75;;;14.00;99.90;;;;;;5053106;28;20025;-80
2022/11/12 10:50:53;;;;;;;10.30;6.57;;;14.00;99.90;;;;;;5053346;28;20466;-80
2022/11/12 10:53:35;;;;;;;11.85;7.15;;;14.10;99.90;;;;;;5053457;28;20028;-80
2022/11/12 10:56:04;;;;;;;10.90;7.60;;;14.10;99.90;;;;;;5044952;28;20032;-80
2022/11/12 10:58:30;;;;;;;11.18;7.20;;;14.10;99.90;;;;;;5033388;28;20025;-80
2022/11/12 11:01:14;;;;;;;9.65;7.70;;;14.20;99.90;;;;;;5033589;28;20026;-80
2022/11/12 11:03:55;;;;;;;16.48;7.72;;;14.20;99.90;;;;;;5033223;28;20049;-80
2022/11/12 11:06:24;;;;;;;15.65;7.60;;;14.30;99.90;;;;;;5033011;28;20482;-80
2022/11/12 11:08:52;;;;;;;9.70;7.32;;;14.30;99.90;;;;;;5033035;28;20027;-80
2022/11/12 11:11:20;;;;;;;11.70;8.25;;;14.40;99.90;;;;;;5033308;28;20106;-80
2022/11/12 11:13:48;;;;;;;9.88;6.32;;;14.40;99.90;;;;;;5033171;28;20026;-80
2022/11/12 11:16:21;;;;;;;12.30;7.93;;;14.50;99.90;;;;;;5033400;28;20057;-80
2022/11/12 11:18:59;;;;;;;9.30;7.22;;;14.50;99.90;;;;;;5033176;28;20479;-80
2022/11/12 11:21:48;;;;;;;7.07;6.40;;;14.50;99.90;;;;;;5032786;28;20028;-80
2022/11/12 11:24:35;;;;;;;13.73;9.93;;;14.50;99.90;;;;;;5033269;28;20433;-80
2022/11/12 11:27:11;;;;;;;13.23;10.30;;;14.50;99.90;;;;;;5033205;28;20049;-80
2022/11/12 11:29:55;;;;;;;12.48;9.80;;;14.50;99.90;;;;;;5032954;28;20021;-80
2022/11/12 11:32:39;;;;;;;14.88;9.85;;;14.50;99.90;;;;;;5033005;28;20021;-80
2022/11/12 11:35:24;;;;;;;13.57;9.48;;;14.50;99.90;;;;;;5033059;28;20117;-80
2022/11/12 11:38:12;;;;;;;11.07;9.02;;;14.50;99.90;;;;;;5032478;28;20048;-80
2022/11/12 11:41:02;;;;;;;17.40;9.15;;;14.60;99.90;;;;;;5048182;28;20064;-80
2022/11/12 11:43:50;;;;;;;11.15;8.50;;;14.60;99.90;;;;;;5032492;28;20104;-80
2022/11/12 11:46:24;;;;;;;11.75;8.38;;;14.60;99.90;;;;;;5032685;28;20526;-80
2022/11/12 11:49:27;;;;;;;13.45;8.40;;;14.60;99.90;;;;;;5032700;28;20041;-80
2022/11/12 11:52:34;;;;;;;11.38;8.20;;;14.70;99.90;;;;;;5032872;28;20060;-80
2022/11/12 11:55:08;;;;;;;12.55;8.55;;;14.70;99.90;;;;;;5032709;28;20084;-79
2022/11/12 11:58:01;;;;;;;8.68;7.72;;;14.70;99.90;;;;;;5032942;28;20022;-80
2022/11/12 12:00:45;;;;;;;12.35;8.55;;;14.70;99.90;;;;;;5032508;28;20078;-80
2022/11/12 12:03:19;;;;;;;11.80;8.95;;;14.70;99.90;;;;;;5015232;28;20076;-80
2022/11/12 12:05:56;;;;;;;14.75;8.10;;;14.70;99.90;;;;;;5015132;28;20061;-80
2022/11/12 12:08:55;;;;;;;12.02;8.23;;;14.70;99.90;;;;;;5032685;28;20052;-79
2022/11/12 12:11:34;;;;;;;11.95;8.02;;;14.70;99.90;;;;;;5032794;28;20032;-79
2022/11/12 12:14:14;;;;;;;12.85;8.63;;;14.70;99.90;;;;;;5032880;28;20017;-79
2022/11/12 12:16:58;;;;;;;10.23;8.18;;;14.80;99.90;;;;;;5032721;28;20026;-79
2022/11/12 12:20:01;;;;;;;13.20;9.00;;;14.80;99.90;;;;;;5052005;28;20502;-79
2022/11/12 12:22:59;;;;;;;11.18;7.93;;;14.80;99.90;;;;;;5051978;28;20029;-81
2022/11/12 12:25:38;;;;;;;6.00;5.35;;;14.80;99.90;;;;;;5032372;28;20041;-77
2022/11/12 12:28:33;;;;;;;17.63;7.82;;;14.90;99.90;;;;;;5016656;28;20026;-79
2022/11/12 12:31:06;;;;;;;11.93;8.63;;;14.90;99.90;;;;;;4998951;28;20037;-79
2022/11/12 12:33:39;;;;;;;12.82;9.43;;;14.90;99.90;;;;;;5016582;28;20030;-79
2022/11/12 12:36:11;;;;;;;16.75;9.85;;;14.80;99.90;;;;;;5016637;28;20029;-79
2022/11/12 12:38:47;;;;;;;;;;;14.80;99.90;;;;;;5016913;28;20034;-79
2022/11/12 12:41:36;;;;;;;13.85;8.57;;;14.90;99.90;;;;;;5016439;28;19905;-79
2022/11/12 12:44:08;;;;;;;10.93;8.13;;;14.80;99.90;;;;;;5016418;28;20480;-79
2022/11/12 12:46:38;;;;;;;;;;;14.80;99.90;;;;;;5034249;28;20433;-79
2022/11/12 12:49:06;;;;;;;9.40;8.38;;;14.80;99.90;;;;;;5056001;28;20351;-80
2022/11/12 12:51:33;;;;;;;11.63;8.98;;;14.80;99.90;;;;;;5038058;28;20390;-79
2022/11/12 12:54:02;;;;;;;10.75;8.10;;;14.90;99.90;;;;;;5038168;28;20501;-79
2022/11/12 12:56:30;;;;;;;17.02;8.90;;;14.90;99.90;;;;;;5055969;28;20036;-80
2022/11/12 12:59:02;;;;;;;11.90;9.38;;;14.90;99.90;;;;;;5055742;28;20641;-80
2022/11/12 13:01:32;;;;;;;14.20;9.73;;;14.90;99.90;;;;;;5055950;28;20021;-79
2022/11/12 13:04:02;;;;;;;16.48;10.70;;;14.90;99.90;;;;;;5037809;28;20021;-80
2022/11/12 13:06:50;;;;;;;14.00;10.52;;;15.00;99.90;;;;;;5055704;28;20546;-79
2022/11/12 13:09:15;;;;;;;13.95;12.00;;;15.00;99.90;;;;;;5055537;28;20067;-79
2022/11/12 13:14:34;;;;;;;17.63;13.93;;;14.90;99.90;;;;;;5055567;28;20044;-79
2022/11/12 13:17:00;;;;;;;20.00;12.63;;;14.90;99.90;;;;;;5055539;28;20028;-79
2022/11/12 13:19:37;;;;;;;18.15;13.13;;;14.90;99.90;;;;;;5055306;28;20033;-79
2022/11/12 13:22:18;;;;;;;20.48;13.65;;;14.90;99.90;;;;;;5037460;28;20021;-79
2022/11/12 13:25:06;;;;;;;21.80;14.57;;;14.90;99.90;;;;;;5037358;28;20497;-79
2022/11/12 13:27:38;;;;;;;16.63;12.57;;;14.90;99.90;;;;;;5037369;28;20044;-79